Time;durP1;ratioP1;P1;durP2;ratioP2;P2;SDS_P1;SDS_P2;PMS_P1;PMS_P2;Temp;Humidity;BMP_temperature;BMP_pressure;BME280_temperature;BME280_humidity;BME280_pressure;Samples;Min_cycle;Max_cycle;Signal;HPM_P1;HPM_P2
2023/12/24 00:01:18;;;;;;;58.92;44.53;;;;;;;;;;4998944;28;20022;-65
2023/12/24 00:03:43;;;;;;;79.93;48.72;;;;;;;;;;4997381;28;20049;-63
2023/12/24 00:06:09;;;;;;;21.42;16.70;;;;;;;;;;4991193;28;20030;-65
2023/12/24 00:08:35;;;;;;;88.35;65.50;;;;;;;;;;4997521;28;20052;-64
2023/12/24 00:11:00;;;;;;;89.93;67.00;;;;;;;;;;4999215;28;20026;-71
2023/12/24 00:13:26;;;;;;;42.38;31.13;;;;;;;;;;4999888;28;20026;-64
2023/12/24 00:15:51;;;;;;;53.00;38.67;;;;;;;;;;4998280;28;20033;-64
2023/12/24 00:18:17;;;;;;;29.45;22.20;;;;;;;;;;4989350;28;20347;-64
2023/12/24 00:20:42;;;;;;;80.15;59.92;;;;;;;;;;4997645;28;20354;-64
2023/12/24 00:23:08;;;;;;;61.25;44.45;;;;;;;;;;4999014;28;20341;-65
2023/12/24 00:25:34;;;;;;;75.07;56.40;;;;;;;;;;4998479;28;20088;-68
2023/12/24 00:27:59;;;;;;;74.80;55.97;;;;;;;;;;5000513;28;20030;-64
2023/12/24 00:30:28;;;;;;;134.23;100.63;;;;;;;;;;5000503;28;20029;-65
2023/12/24 00:32:56;;;;;;;99.32;71.32;;;;;;;;;;5001515;28;20029;-63
2023/12/24 00:35:22;;;;;;;95.65;74.05;;;;;;;;;;5001514;28;20152;-64
2023/12/24 00:37:49;;;;;;;51.17;38.78;;;;;;;;;;5002137;28;20124;-63
2023/12/24 00:40:14;;;;;;;46.28;36.95;;;;;;;;;;4976005;28;20038;-68
2023/12/24 00:42:41;;;;;;;68.57;48.17;;;;;;;;;;4998210;28;20034;-64
2023/12/24 00:45:07;;;;;;;81.32;56.45;;;;;;;;;;5001372;28;20026;-64
2023/12/24 00:47:32;;;;;;;45.78;34.60;;;;;;;;;;4997077;28;20022;-63
2023/12/24 00:49:58;;;;;;;23.48;18.98;;;;;;;;;;4996729;28;20034;-66
2023/12/24 00:52:23;;;;;;;93.88;74.20;;;;;;;;;;5001531;28;20026;-64
2023/12/24 00:54:48;;;;;;;31.35;25.13;;;;;;;;;;4999762;28;20051;-65
2023/12/24 00:57:14;;;;;;;12.02;10.75;;;;;;;;;;4994217;28;20155;-64
2023/12/24 00:59:39;;;;;;;7.15;5.13;;;;;;;;;;5002975;28;20370;-66
2023/12/24 01:02:05;;;;;;;23.40;15.38;;;;;;;;;;5000291;28;20022;-64
2023/12/24 01:04:30;;;;;;;6.88;5.20;;;;;;;;;;5000908;28;20658;-66
2023/12/24 01:06:55;;;;;;;35.60;29.05;;;;;;;;;;5001537;28;20038;-64
2023/12/24 01:09:21;;;;;;;40.25;32.88;;;;;;;;;;4999847;28;20041;-64
2023/12/24 01:11:47;;;;;;;20.20;16.15;;;;;;;;;;5001483;28;20041;-63
2023/12/24 01:14:12;;;;;;;10.35;8.05;;;;;;;;;;5001749;28;20445;-64
2023/12/24 01:16:41;;;;;;;37.53;30.65;;;;;;;;;;5000136;28;20034;-64
2023/12/24 01:19:06;;;;;;;24.35;20.20;;;;;;;;;;4992244;28;20349;-64
2023/12/24 01:21:32;;;;;;;19.77;17.05;;;;;;;;;;5001588;28;20033;-64
2023/12/24 01:23:57;;;;;;;35.58;27.30;;;;;;;;;;5004637;28;20087;-65
2023/12/24 01:26:22;;;;;;;21.98;18.25;;;;;;;;;;5004477;28;20131;-65
2023/12/24 01:28:48;;;;;;;18.73;15.55;;;;;;;;;;4992890;28;20034;-64
2023/12/24 01:31:13;;;;;;;35.17;27.17;;;;;;;;;;4990576;28;20492;-66
2023/12/24 01:33:39;;;;;;;25.02;19.17;;;;;;;;;;4991102;28;20032;-64
2023/12/24 01:36:04;;;;;;;18.75;16.60;;;;;;;;;;5001162;28;20109;-65
2023/12/24 01:38:30;;;;;;;39.40;35.55;;;;;;;;;;4990021;28;20084;-64
2023/12/24 01:40:55;;;;;;;20.55;18.55;;;;;;;;;;4993398;28;20425;-63
2023/12/24 01:43:21;;;;;;;20.00;17.38;;;;;;;;;;4998454;28;20025;-66
2023/12/24 01:45:46;;;;;;;29.67;23.58;;;;;;;;;;5000495;28;20126;-63
2023/12/24 01:48:14;;;;;;;25.60;22.20;;;;;;;;;;5000961;28;20018;-63
2023/12/24 01:50:40;;;;;;;28.42;22.98;;;;;;;;;;5000299;28;20349;-64
2023/12/24 01:53:06;;;;;;;16.42;13.30;;;;;;;;;;4994891;28;20606;-63
2023/12/24 01:55:31;;;;;;;28.70;23.45;;;;;;;;;;4997453;28;20490;-63
2023/12/24 01:57:58;;;;;;;54.60;39.03;;;;;;;;;;5000806;28;20026;-66
2023/12/24 02:00:24;;;;;;;39.80;31.02;;;;;;;;;;5000752;28;20040;-66
2023/12/24 02:02:50;;;;;;;34.67;24.83;;;;;;;;;;5000757;28;20026;-68
2023/12/24 02:05:16;;;;;;;42.47;28.75;;;;;;;;;;5001034;28;20083;-66
2023/12/24 02:07:42;;;;;;;32.25;22.52;;;;;;;;;;5000212;28;20048;-65
2023/12/24 02:10:08;;;;;;;23.27;17.50;;;;;;;;;;5000634;28;20058;-64
2023/12/24 02:12:34;;;;;;;23.13;16.52;;;;;;;;;;5000181;28;20079;-67
2023/12/24 02:14:59;;;;;;;34.90;28.10;;;;;;;;;;4994382;28;20445;-64
2023/12/24 02:17:25;;;;;;;35.58;25.27;;;;;;;;;;4996278;28;20030;-65
2023/12/24 02:19:51;;;;;;;17.83;13.70;;;;;;;;;;5001081;28;20034;-64
2023/12/24 02:22:16;;;;;;;8.18;6.53;;;;;;;;;;5000952;28;20120;-66
2023/12/24 02:24:42;;;;;;;7.43;6.35;;;;;;;;;;5000336;28;20422;-63
2023/12/24 02:27:20;;;;;;;8.23;6.20;;;;;;;;;;5001223;28;20029;-64
2023/12/24 02:29:47;;;;;;;9.50;7.50;;;;;;;;;;5000394;28;20034;-66
2023/12/24 02:32:13;;;;;;;9.82;7.28;;;;;;;;;;4998332;28;20117;-64
2023/12/24 02:34:39;;;;;;;9.20;6.65;;;;;;;;;;4994492;28;20029;-65
2023/12/24 02:37:05;;;;;;;7.25;6.22;;;;;;;;;;5000031;28;20052;-65
2023/12/24 02:39:30;;;;;;;5.00;3.63;;;;;;;;;;4989490;28;20026;-66
2023/12/24 02:41:56;;;;;;;6.18;4.28;;;;;;;;;;4997167;28;20421;-64
2023/12/24 02:44:21;;;;;;;9.90;7.00;;;;;;;;;;4992621;28;20617;-67
2023/12/24 02:46:46;;;;;;;7.00;4.57;;;;;;;;;;4989213;28;20042;-65
2023/12/24 02:49:14;;;;;;;6.32;4.30;;;;;;;;;;4999274;28;20180;-64
2023/12/24 02:51:39;;;;;;;7.00;5.53;;;;;;;;;;4987237;28;20018;-64
2023/12/24 02:54:04;;;;;;;5.43;4.40;;;;;;;;;;4996812;28;20022;-64
2023/12/24 02:56:36;;;;;;;7.47;5.38;;;;;;;;;;4999317;28;20038;-62
2023/12/24 02:59:01;;;;;;;8.48;5.78;;;;;;;;;;4999139;28;20117;-65
2023/12/24 03:01:28;;;;;;;10.20;6.47;;;;;;;;;;4999475;28;20430;-65
2023/12/24 03:03:53;;;;;;;6.07;4.80;;;;;;;;;;4998745;28;20487;-65
2023/12/24 03:06:19;;;;;;;7.88;6.55;;;;;;;;;;4999278;28;20088;-63
2023/12/24 03:08:44;;;;;;;9.68;7.20;;;;;;;;;;4982625;28;20058;-65
2023/12/24 03:11:09;;;;;;;10.63;6.93;;;;;;;;;;4998734;28;20151;-65
2023/12/24 03:13:35;;;;;;;15.43;11.85;;;;;;;;;;4999633;28;20444;-65
2023/12/24 03:16:01;;;;;;;8.32;5.25;;;;;;;;;;4989107;28;20362;-66
2023/12/24 03:18:26;;;;;;;6.20;4.93;;;;;;;;;;4999185;28;20030;-66
2023/12/24 03:20:51;;;;;;;6.13;4.68;;;;;;;;;;4999015;28;20038;-63
2023/12/24 03:23:17;;;;;;;4.97;4.00;;;;;;;;;;4999191;28;20030;-63
2023/12/24 03:25:42;;;;;;;8.27;5.53;;;;;;;;;;4998921;28;20034;-63
2023/12/24 03:28:07;;;;;;;9.77;8.35;;;;;;;;;;4997733;28;20030;-65
2023/12/24 03:30:33;;;;;;;7.30;6.40;;;;;;;;;;4998723;28;20099;-65
2023/12/24 03:32:58;;;;;;;8.13;6.03;;;;;;;;;;4961730;28;20045;-64
2023/12/24 03:35:23;;;;;;;6.13;5.53;;;;;;;;;;4998291;28;20037;-64
2023/12/24 03:37:49;;;;;;;11.15;8.77;;;;;;;;;;4998834;28;20018;-64
2023/12/24 03:40:14;;;;;;;27.00;19.35;;;;;;;;;;4998684;28;20153;-65
2023/12/24 03:42:39;;;;;;;49.92;26.23;;;;;;;;;;4998997;28;20030;-63
2023/12/24 03:45:05;;;;;;;45.08;27.73;;;;;;;;;;4998922;28;20044;-66
2023/12/24 03:47:30;;;;;;;18.60;14.43;;;;;;;;;;4992752;28;20034;-63
2023/12/24 03:49:56;;;;;;;22.55;19.13;;;;;;;;;;4993214;28;20125;-65
2023/12/24 03:52:21;;;;;;;10.85;9.70;;;;;;;;;;4998801;28;20037;-66
2023/12/24 03:54:46;;;;;;;10.50;8.93;;;;;;;;;;4997001;28;20040;-65
2023/12/24 03:57:12;;;;;;;11.93;8.18;;;;;;;;;;4989789;28;20522;-64
2023/12/24 03:59:38;;;;;;;6.78;5.88;;;;;;;;;;4998733;28;20033;-65
2023/12/24 04:02:03;;;;;;;6.15;5.55;;;;;;;;;;4999943;28;20045;-67
2023/12/24 04:04:28;;;;;;;5.35;4.57;;;;;;;;;;5003024;28;20030;-64
2023/12/24 04:06:54;;;;;;;8.75;5.72;;;;;;;;;;5001993;28;20034;-67
2023/12/24 04:09:19;;;;;;;7.70;6.90;;;;;;;;;;4997733;28;20529;-65
2023/12/24 04:11:47;;;;;;;7.53;6.72;;;;;;;;;;4996252;28;20338;-64
2023/12/24 04:14:12;;;;;;;7.50;6.78;;;;;;;;;;5001735;28;20032;-64
2023/12/24 04:16:37;;;;;;;7.55;6.18;;;;;;;;;;4992785;28;20078;-64
2023/12/24 04:19:03;;;;;;;10.82;9.73;;;;;;;;;;5002294;28;20026;-63
2023/12/24 04:21:30;;;;;;;7.40;6.70;;;;;;;;;;5002153;28;20049;-66
2023/12/24 04:23:56;;;;;;;10.57;8.00;;;;;;;;;;5002273;28;20081;-67
2023/12/24 04:26:21;;;;;;;9.55;8.55;;;;;;;;;;4993668;28;20487;-64
2023/12/24 04:28:47;;;;;;;7.32;6.63;;;;;;;;;;4999750;28;20033;-64
2023/12/24 04:31:12;;;;;;;10.25;9.23;;;;;;;;;;5001882;28;20430;-63
2023/12/24 04:33:37;;;;;;;7.82;6.72;;;;;;;;;;5001710;28;20342;-62
2023/12/24 04:36:03;;;;;;;10.27;7.95;;;;;;;;;;4992876;28;20037;-66
2023/12/24 04:38:28;;;;;;;8.15;7.10;;;;;;;;;;4997118;28;20026;-64
2023/12/24 04:40:54;;;;;;;8.95;8.05;;;;;;;;;;4993286;28;20053;-62
2023/12/24 04:43:19;;;;;;;8.63;7.70;;;;;;;;;;5001782;28;20115;-67
2023/12/24 04:45:44;;;;;;;18.50;15.02;;;;;;;;;;5002052;28;20026;-63
2023/12/24 04:48:10;;;;;;;22.52;17.92;;;;;;;;;;4992850;28;20507;-66
2023/12/24 04:50:35;;;;;;;24.40;19.58;;;;;;;;;;4991714;28;20084;-62
2023/12/24 04:53:00;;;;;;;23.02;17.65;;;;;;;;;;5000627;28;20087;-64
2023/12/24 04:55:26;;;;;;;20.58;16.45;;;;;;;;;;5001759;28;20124;-64
2023/12/24 04:57:51;;;;;;;17.92;15.10;;;;;;;;;;5002478;28;20069;-64
2023/12/24 05:00:16;;;;;;;16.92;13.40;;;;;;;;;;5002021;28;20072;-66
2023/12/24 05:02:42;;;;;;;17.23;13.25;;;;;;;;;;5002442;28;20022;-63
2023/12/24 05:05:08;;;;;;;15.85;13.18;;;;;;;;;;5002004;28;20061;-64
2023/12/24 05:07:34;;;;;;;13.57;11.68;;;;;;;;;;4999673;28;20030;-62
2023/12/24 05:10:01;;;;;;;15.65;12.73;;;;;;;;;;4991864;28;20056;-63
2023/12/24 05:12:26;;;;;;;13.15;11.45;;;;;;;;;;4996153;28;20468;-66
2023/12/24 05:14:52;;;;;;;15.93;13.30;;;;;;;;;;4987767;28;20022;-63
2023/12/24 05:17:17;;;;;;;20.20;16.15;;;;;;;;;;4987706;28;20060;-64
2023/12/24 05:19:43;;;;;;;31.98;22.30;;;;;;;;;;4989339;28;20420;-65
2023/12/24 05:22:08;;;;;;;26.98;20.73;;;;;;;;;;4988494;28;21062;-65
2023/12/24 05:24:33;;;;;;;25.65;19.73;;;;;;;;;;4989212;28;20410;-64
2023/12/24 05:26:59;;;;;;;34.53;17.92;;;;;;;;;;4988936;28;20045;-64
2023/12/24 05:29:24;;;;;;;25.30;21.20;;;;;;;;;;4989556;28;20441;-64
2023/12/24 05:31:49;;;;;;;32.60;26.33;;;;;;;;;;5001476;28;20029;-62
2023/12/24 05:34:15;;;;;;;33.53;27.70;;;;;;;;;;5000618;28;20341;-63
2023/12/24 05:36:40;;;;;;;37.03;31.25;;;;;;;;;;5000493;28;20128;-64
2023/12/24 05:39:06;;;;;;;35.78;30.17;;;;;;;;;;5001151;28;20029;-63
2023/12/24 05:41:32;;;;;;;29.85;25.52;;;;;;;;;;4991248;28;20036;-63
2023/12/24 05:43:57;;;;;;;37.10;30.23;;;;;;;;;;5001093;28;20029;-66
2023/12/24 05:46:23;;;;;;;32.00;27.08;;;;;;;;;;5001841;28;20044;-64
2023/12/24 05:48:48;;;;;;;32.75;25.48;;;;;;;;;;5001136;28;20025;-64
2023/12/24 05:51:14;;;;;;;29.23;25.63;;;;;;;;;;5001922;28;20331;-65
2023/12/24 05:53:39;;;;;;;29.88;25.95;;;;;;;;;;5001245;28;20022;-63
2023/12/24 05:56:04;;;;;;;23.45;19.02;;;;;;;;;;5001576;28;20030;-62
2023/12/24 05:58:30;;;;;;;22.75;19.92;;;;;;;;;;5000030;28;20034;-70
2023/12/24 06:00:55;;;;;;;18.98;15.82;;;;;;;;;;5001354;28;20136;-64
2023/12/24 06:03:20;;;;;;;10.95;8.98;;;;;;;;;;4998535;28;20054;-63
2023/12/24 06:05:46;;;;;;;13.80;11.23;;;;;;;;;;4995891;28;20061;-67
2023/12/24 06:08:16;;;;;;;14.07;12.57;;;;;;;;;;5004682;28;20021;-65
2023/12/24 06:10:41;;;;;;;12.02;10.45;;;;;;;;;;5005965;28;20041;-65
2023/12/24 06:13:07;;;;;;;12.65;10.20;;;;;;;;;;5001082;28;20037;-66
2023/12/24 06:15:32;;;;;;;40.20;33.30;;;;;;;;;;4997785;28;20512;-63
2023/12/24 06:17:57;;;;;;;28.17;23.33;;;;;;;;;;4989492;28;20036;-65
2023/12/24 06:20:23;;;;;;;20.20;16.23;;;;;;;;;;4992506;28;20040;-64
2023/12/24 06:22:48;;;;;;;30.88;27.48;;;;;;;;;;5000483;28;20061;-64
2023/12/24 06:25:13;;;;;;;56.35;49.22;;;;;;;;;;5000409;28;20026;-69
2023/12/24 06:27:39;;;;;;;37.40;33.20;;;;;;;;;;5000958;28;20461;-66
2023/12/24 06:30:04;;;;;;;65.55;56.95;;;;;;;;;;5001005;28;20433;-64
2023/12/24 06:32:30;;;;;;;79.97;71.55;;;;;;;;;;5001060;28;20091;-68
2023/12/24 06:34:55;;;;;;;69.07;61.88;;;;;;;;;;5001343;28;20128;-64
2023/12/24 06:37:20;;;;;;;44.30;38.80;;;;;;;;;;5000686;28;20120;-64
2023/12/24 06:39:46;;;;;;;522.97;410.15;;;;;;;;;;4994340;28;20033;-63
2023/12/24 06:42:11;;;;;;;361.65;265.92;;;;;;;;;;4929362;28;20054;-65
2023/12/24 06:44:36;;;;;;;109.90;94.68;;;;;;;;;;4963335;28;20034;-63
2023/12/24 06:47:02;;;;;;;279.63;235.68;;;;;;;;;;4970109;28;20034;-65
2023/12/24 06:49:27;;;;;;;97.63;83.55;;;;;;;;;;4968240;28;20058;-66
2023/12/24 06:51:53;;;;;;;110.53;86.78;;;;;;;;;;4969353;28;20066;-67
2023/12/24 06:54:18;;;;;;;311.67;277.85;;;;;;;;;;4960407;28;20089;-71
2023/12/24 06:56:43;;;;;;;177.30;147.95;;;;;;;;;;4964853;28;20138;-67
2023/12/24 06:59:09;;;;;;;140.35;115.07;;;;;;;;;;4955529;28;20030;-66
2023/12/24 07:01:35;;;;;;;331.05;283.27;;;;;;;;;;4968884;28;20133;-68
2023/12/24 07:04:00;;;;;;;162.57;131.05;;;;;;;;;;4969561;28;23467;-63
2023/12/24 07:06:26;;;;;;;98.50;85.53;;;;;;;;;;4968859;28;20074;-66
2023/12/24 07:08:51;;;;;;;119.65;98.85;;;;;;;;;;4969606;28;20053;-66
2023/12/24 07:11:16;;;;;;;87.43;78.32;;;;;;;;;;4969176;28;20954;-67
2023/12/24 07:13:42;;;;;;;84.53;75.53;;;;;;;;;;4956683;28;20425;-67
2023/12/24 07:16:08;;;;;;;166.57;129.68;;;;;;;;;;4967653;28;20142;-69
2023/12/24 07:18:33;;;;;;;288.58;225.68;;;;;;;;;;4967076;28;20030;-67
2023/12/24 07:20:58;;;;;;;226.35;194.77;;;;;;;;;;4968059;28;20095;-67
2023/12/24 07:23:24;;;;;;;424.65;305.98;;;;;;;;;;4966449;28;20126;-68
2023/12/24 07:25:49;;;;;;;456.50;343.27;;;;;;;;;;4967333;28;20106;-67
2023/12/24 07:28:14;;;;;;;234.48;184.50;;;;;;;;;;4970109;28;20054;-65
2023/12/24 07:30:40;;;;;;;132.10;92.57;;;;;;;;;;4967772;28;20285;-64
2023/12/24 07:33:05;;;;;;;108.65;96.65;;;;;;;;;;4969804;28;20514;-65
2023/12/24 07:35:31;;;;;;;87.28;76.32;;;;;;;;;;4959388;28;20035;-64
2023/12/24 07:37:56;;;;;;;97.80;86.80;;;;;;;;;;4963333;28;20045;-67
2023/12/24 07:40:21;;;;;;;103.15;91.78;;;;;;;;;;4966903;28;20107;-70
2023/12/24 07:42:47;;;;;;;94.35;74.68;;;;;;;;;;4965739;28;20030;-69
2023/12/24 07:45:12;;;;;;;68.03;61.22;;;;;;;;;;4973748;28;20058;-67
2023/12/24 07:47:37;;;;;;;109.13;94.40;;;;;;;;;;4959704;28;20039;-65
2023/12/24 07:50:03;;;;;;;113.40;93.13;;;;;;;;;;4957672;28;20039;-69
2023/12/24 07:52:28;;;;;;;63.92;53.25;;;;;;;;;;4972123;28;20065;-65
2023/12/24 07:54:54;;;;;;;101.43;87.22;;;;;;;;;;4973698;28;20509;-64
2023/12/24 07:57:19;;;;;;;114.80;98.78;;;;;;;;;;4970524;28;20537;-64
2023/12/24 07:59:44;;;;;;;51.97;42.08;;;;;;;;;;4972592;28;20019;-66
2023/12/24 08:02:10;;;;;;;15.18;13.43;;;;;;;;;;4969792;28;20027;-69
2023/12/24 08:04:35;;;;;;;29.77;24.58;;;;;;;;;;4971407;28;20026;-67
2023/12/24 08:07:00;;;;;;;29.70;26.42;;;;;;;;;;4974049;28;20027;-65
2023/12/24 08:09:26;;;;;;;39.33;32.42;;;;;;;;;;4972455;28;20062;-70
2023/12/24 08:11:51;;;;;;;30.13;23.10;;;;;;;;;;4973501;28;20031;-67
2023/12/24 08:14:17;;;;;;;31.15;26.42;;;;;;;;;;4977106;28;20036;-69
2023/12/24 08:16:42;;;;;;;9.30;7.43;;;;;;;;;;4972852;28;20073;-68
2023/12/24 08:19:07;;;;;;;21.20;19.00;;;;;;;;;;4970633;28;20073;-66
2023/12/24 08:21:33;;;;;;;12.20;11.02;;;;;;;;;;4973430;28;20069;-66
2023/12/24 08:23:58;;;;;;;18.48;15.43;;;;;;;;;;4972623;28;20461;-66
2023/12/24 08:26:23;;;;;;;55.72;49.72;;;;;;;;;;4969033;28;20041;-66
2023/12/24 08:28:49;;;;;;;71.25;58.88;;;;;;;;;;4973500;28;20038;-66
2023/12/24 08:31:14;;;;;;;68.55;57.83;;;;;;;;;;4973315;28;20030;-66
2023/12/24 08:33:40;;;;;;;116.75;103.07;;;;;;;;;;4971225;28;20486;-68
2023/12/24 08:36:06;;;;;;;120.95;107.13;;;;;;;;;;4968951;28;20034;-68
2023/12/24 08:38:32;;;;;;;183.50;163.55;;;;;;;;;;4971698;28;20031;-65
2023/12/24 08:40:58;;;;;;;226.10;201.95;;;;;;;;;;4971849;28;20354;-66
2023/12/24 08:43:23;;;;;;;168.43;150.27;;;;;;;;;;4970428;28;20042;-64
2023/12/24 08:45:48;;;;;;;217.77;178.07;;;;;;;;;;4969924;28;20053;-69
2023/12/24 08:48:14;;;;;;;123.05;102.57;;;;;;;;;;4960991;28;20104;-66
2023/12/24 08:50:39;;;;;;;140.18;122.55;;;;;;;;;;4958681;28;20035;-69
2023/12/24 08:53:04;;;;;;;175.88;151.70;;;;;;;;;;4973319;28;20030;-69
2023/12/24 08:55:30;;;;;;;119.75;106.20;;;;;;;;;;4961179;28;20038;-71
2023/12/24 08:57:55;;;;;;;115.18;99.18;;;;;;;;;;4956936;28;20513;-66
2023/12/24 09:00:21;;;;;;;106.85;87.20;;;;;;;;;;4964678;28;20061;-71
2023/12/24 09:02:47;;;;;;;121.10;106.30;;;;;;;;;;4972071;28;20023;-70
2023/12/24 09:05:12;;;;;;;87.32;74.60;;;;;;;;;;4954803;28;20035;-70
2023/12/24 09:07:38;;;;;;;74.82;61.47;;;;;;;;;;4957383;28;20106;-68
2023/12/24 09:10:03;;;;;;;36.92;33.08;;;;;;;;;;4956106;28;20046;-69
2023/12/24 09:12:28;;;;;;;31.58;26.65;;;;;;;;;;4955520;28;20023;-67
2023/12/24 09:14:54;;;;;;;24.95;22.00;;;;;;;;;;4954445;28;20034;-68
2023/12/24 09:17:19;;;;;;;18.77;16.80;;;;;;;;;;4954534;28;20741;-71
2023/12/24 09:19:44;;;;;;;36.53;28.00;;;;;;;;;;4953439;28;20027;-70
2023/12/24 09:22:10;;;;;;;22.58;19.95;;;;;;;;;;4953208;28;20039;-69
2023/12/24 09:24:35;;;;;;;135.35;84.30;;;;;;;;;;4954939;28;20022;-71
2023/12/24 09:27:01;;;;;;;25.73;21.25;;;;;;;;;;4961147;28;20034;-69
2023/12/24 09:29:26;;;;;;;30.92;26.55;;;;;;;;;;4971815;28;20022;-69
2023/12/24 09:31:51;;;;;;;9.68;8.23;;;;;;;;;;4970328;28;20485;-69
2023/12/24 09:34:17;;;;;;;9.60;8.68;;;;;;;;;;4969954;28;20037;-71
2023/12/24 09:36:42;;;;;;;8.43;7.72;;;;;;;;;;4968059;28;20039;-71
2023/12/24 09:39:07;;;;;;;7.78;6.53;;;;;;;;;;4954806;28;20473;-71
2023/12/24 09:41:33;;;;;;;4.00;3.60;;;;;;;;;;4955638;28;20294;-70
2023/12/24 09:43:59;;;;;;;5.78;5.18;;;;;;;;;;4953956;28;20039;-69
2023/12/24 09:46:24;;;;;;;5.72;5.15;;;;;;;;;;4952579;28;20049;-70
2023/12/24 09:48:49;;;;;;;6.72;5.65;;;;;;;;;;4955245;28;20476;-71
2023/12/24 09:51:15;;;;;;;4.30;3.83;;;;;;;;;;4938111;28;20333;-69
2023/12/24 09:53:44;;;;;;;5.60;5.07;;;;;;;;;;4953692;28;20421;-70
2023/12/24 09:56:09;;;;;;;5.80;4.80;;;;;;;;;;4955775;28;20098;-70
2023/12/24 09:58:34;;;;;;;4.82;4.30;;;;;;;;;;4952505;28;20110;-71
2023/12/24 10:01:00;;;;;;;5.45;3.80;;;;;;;;;;4955930;28;20062;-72
2023/12/24 10:03:25;;;;;;;6.32;5.28;;;;;;;;;;4955944;28;20030;-72
2023/12/24 10:06:04;;;;;;;4.07;3.55;;;;;;;;;;4956852;28;20030;-70
2023/12/24 10:08:30;;;;;;;7.95;7.15;;;;;;;;;;4954795;28;20329;-69
2023/12/24 10:10:56;;;;;;;6.68;6.05;;;;;;;;;;4956320;28;20433;-70
2023/12/24 10:13:21;;;;;;;4.00;3.58;;;;;;;;;;4952867;28;20125;-68
2023/12/24 10:15:47;;;;;;;6.30;5.63;;;;;;;;;;4954505;28;20042;-70
2023/12/24 10:18:18;;;;;;;11.43;10.23;;;;;;;;;;4966622;28;20038;-69
2023/12/24 10:20:45;;;;;;;8.35;6.70;;;;;;;;;;4971876;28;20027;-68
2023/12/24 10:23:10;;;;;;;8.32;7.53;;;;;;;;;;4968824;28;20138;-69
2023/12/24 10:25:35;;;;;;;8.02;7.22;;;;;;;;;;4969136;28;20435;-69
2023/12/24 10:28:07;;;;;;;6.57;5.93;;;;;;;;;;4970048;28;20113;-68
2023/12/24 10:30:33;;;;;;;17.33;15.43;;;;;;;;;;4961230;28;20037;-71
2023/12/24 10:33:08;;;;;;;14.73;13.13;;;;;;;;;;4952288;28;20373;-71
2023/12/24 10:35:34;;;;;;;23.55;19.73;;;;;;;;;;4949817;28;20054;-68
2023/12/24 10:38:06;;;;;;;15.25;12.90;;;;;;;;;;4952795;28;20233;-68
2023/12/24 10:40:32;;;;;;;40.20;31.25;;;;;;;;;;4937170;28;20413;-68
2023/12/24 10:42:57;;;;;;;25.58;22.77;;;;;;;;;;4956402;28;20110;-66
2023/12/24 10:45:22;;;;;;;20.40;18.23;;;;;;;;;;4954767;28;20087;-67
2023/12/24 10:47:48;;;;;;;12.63;10.93;;;;;;;;;;4952147;28;20525;-68
2023/12/24 10:50:13;;;;;;;10.68;9.32;;;;;;;;;;4970792;28;20027;-66
2023/12/24 10:52:39;;;;;;;19.63;17.58;;;;;;;;;;4963467;28;20057;-68
2023/12/24 10:55:04;;;;;;;22.73;20.67;;;;;;;;;;4968444;28;20037;-68
2023/12/24 10:57:45;;;;;;;30.65;27.63;;;;;;;;;;4968755;28;20042;-68
2023/12/24 11:00:12;;;;;;;86.70;77.82;;;;;;;;;;4969122;28;20030;-68
2023/12/24 11:02:42;;;;;;;25.98;23.38;;;;;;;;;;4966273;28;20027;-68
2023/12/24 11:05:07;;;;;;;;;;;;;;;;;;4969917;28;20026;-68
2023/12/24 11:07:45;;;;;;;9.93;9.00;;;;;;;;;;4968584;28;19955;-70
2023/12/24 11:10:30;;;;;;;5.78;5.07;;;;;;;;;;4969355;28;20287;-68
2023/12/24 11:12:55;;;;;;;37.47;27.23;;;;;;;;;;4969453;28;20510;-69
2023/12/24 11:15:38;;;;;;;15.52;12.77;;;;;;;;;;4967489;28;20197;-69
2023/12/24 11:18:05;;;;;;;5.22;4.72;;;;;;;;;;4968982;28;20134;-70
2023/12/24 11:20:37;;;;;;;7.90;7.10;;;;;;;;;;4970279;28;20070;-68
2023/12/24 11:23:05;;;;;;;11.77;10.35;;;;;;;;;;4968795;28;20456;-69
2023/12/24 11:25:47;;;;;;;22.23;17.20;;;;;;;;;;4971321;28;20174;-69
2023/12/24 11:28:32;;;;;;;14.05;10.85;;;;;;;;;;4970262;28;20125;-68
2023/12/24 11:30:58;;;;;;;12.38;11.18;;;;;;;;;;4971281;28;20045;-69
2023/12/24 11:33:41;;;;;;;11.27;10.20;;;;;;;;;;4969182;28;20089;-69
2023/12/24 11:36:10;;;;;;;25.00;22.70;;;;;;;;;;4970007;28;20034;-69
2023/12/24 11:38:35;;;;;;;11.75;6.75;;;;;;;;;;4970886;28;20030;-68
2023/12/24 11:41:11;;;;;;;4.70;3.85;;;;;;;;;;4969662;28;20544;-69
2023/12/24 11:43:40;;;;;;;5.18;4.68;;;;;;;;;;4969339;28;20053;-68
2023/12/24 11:46:05;;;;;;;27.75;25.33;;;;;;;;;;4971258;28;20030;-69
2023/12/24 11:48:32;;;;;;;9.15;7.90;;;;;;;;;;4967537;28;20354;-69
2023/12/24 11:51:02;;;;;;;12.07;10.80;;;;;;;;;;4970248;28;20451;-68
2023/12/24 11:53:29;;;;;;;10.02;9.02;;;;;;;;;;4968514;28;20028;-69
2023/12/24 11:56:08;;;;;;;12.05;10.57;;;;;;;;;;4970147;28;20030;-68
2023/12/24 11:58:33;;;;;;;8.70;7.68;;;;;;;;;;4968978;28;20085;-69
2023/12/24 12:01:00;;;;;;;8.40;7.10;;;;;;;;;;4966807;28;20031;-69
2023/12/24 12:03:25;;;;;;;9.55;7.72;;;;;;;;;;4970020;28;20094;-69
2023/12/24 12:05:50;;;;;;;9.98;7.20;;;;;;;;;;4968778;28;20091;-69
2023/12/24 12:08:16;;;;;;;15.20;13.40;;;;;;;;;;4969524;28;20030;-68
2023/12/24 12:10:41;;;;;;;10.35;7.97;;;;;;;;;;4971100;28;20344;-69
2023/12/24 12:13:06;;;;;;;16.38;14.13;;;;;;;;;;4969177;28;20042;-69
2023/12/24 12:15:32;;;;;;;19.00;15.98;;;;;;;;;;4966944;28;20535;-70
2023/12/24 12:17:57;;;;;;;11.05;7.88;;;;;;;;;;4971123;28;20031;-69
2023/12/24 12:20:22;;;;;;;23.52;20.98;;;;;;;;;;4969320;28;20063;-69
2023/12/24 12:22:51;;;;;;;34.92;31.27;;;;;;;;;;4970366;28;20435;-69
2023/12/24 12:25:17;;;;;;;26.90;23.77;;;;;;;;;;4971872;28;21118;-70
2023/12/24 12:27:42;;;;;;;44.15;34.33;;;;;;;;;;4971831;28;20561;-69
2023/12/24 12:30:08;;;;;;;28.60;22.30;;;;;;;;;;4970379;28;20090;-70
2023/12/24 12:32:34;;;;;;;31.90;26.73;;;;;;;;;;4971707;28;20455;-69
2023/12/24 12:35:00;;;;;;;14.02;10.07;;;;;;;;;;4971347;28;20038;-69
2023/12/24 12:37:25;;;;;;;22.33;17.38;;;;;;;;;;4972812;28;20501;-69
2023/12/24 12:39:51;;;;;;;25.67;17.98;;;;;;;;;;4970170;28;20465;-69
2023/12/24 12:42:17;;;;;;;25.83;17.08;;;;;;;;;;4973369;28;20037;-69
2023/12/24 12:44:42;;;;;;;28.63;21.52;;;;;;;;;;4971416;28;20121;-69
2023/12/24 12:47:08;;;;;;;29.70;20.30;;;;;;;;;;4974111;28;20423;-70
2023/12/24 12:49:33;;;;;;;21.85;14.63;;;;;;;;;;4968957;28;20027;-70
2023/12/24 12:51:59;;;;;;;17.73;13.13;;;;;;;;;;4971857;28;20541;-69
2023/12/24 12:54:25;;;;;;;22.88;14.93;;;;;;;;;;4969483;28;20346;-69
2023/12/24 12:56:51;;;;;;;48.20;28.58;;;;;;;;;;4970748;28;20076;-69
2023/12/24 12:59:22;;;;;;;34.88;29.00;;;;;;;;;;4971464;28;20492;-70
2023/12/24 13:01:48;;;;;;;30.92;22.95;;;;;;;;;;4971808;28;20070;-69
2023/12/24 13:04:23;;;;;;;20.45;13.75;;;;;;;;;;4971178;28;20857;-69
2023/12/24 13:06:52;;;;;;;37.00;25.88;;;;;;;;;;4969672;28;20049;-69
2023/12/24 13:09:19;;;;;;;30.63;23.50;;;;;;;;;;4971204;28;20058;-69
2023/12/24 13:11:44;;;;;;;17.67;12.90;;;;;;;;;;4959018;28;20039;-70
2023/12/24 13:14:09;;;;;;;26.02;21.20;;;;;;;;;;4957628;28;20364;-70
2023/12/24 13:16:35;;;;;;;32.10;24.50;;;;;;;;;;4971960;28;21304;-70
2023/12/24 13:19:17;;;;;;;15.77;12.38;;;;;;;;;;4970340;28;20066;-69
2023/12/24 13:21:42;;;;;;;27.83;21.38;;;;;;;;;;4970229;28;20972;-69
2023/12/24 13:24:07;;;;;;;20.45;13.00;;;;;;;;;;4970555;28;20022;-69
2023/12/24 13:26:33;;;;;;;19.33;13.60;;;;;;;;;;4969701;28;20038;-69
2023/12/24 13:28:58;;;;;;;46.30;36.58;;;;;;;;;;4969682;28;20450;-69
2023/12/24 13:31:26;;;;;;;21.65;14.40;;;;;;;;;;4968846;28;20022;-69
2023/12/24 13:33:51;;;;;;;42.33;27.85;;;;;;;;;;4968616;28;20039;-69
2023/12/24 13:36:17;;;;;;;47.03;24.77;;;;;;;;;;4969832;28;20455;-69
2023/12/24 13:38:42;;;;;;;35.25;18.95;;;;;;;;;;4969349;28;20031;-68
2023/12/24 13:41:07;;;;;;;32.95;20.13;;;;;;;;;;4971889;28;20035;-69
2023/12/24 13:43:33;;;;;;;31.58;19.58;;;;;;;;;;4971380;28;20041;-69
2023/12/24 13:45:58;;;;;;;71.22;53.38;;;;;;;;;;4970812;28;20026;-69
2023/12/24 13:48:24;;;;;;;28.65;23.92;;;;;;;;;;4969712;28;20033;-70
2023/12/24 13:50:50;;;;;;;17.70;11.52;;;;;;;;;;4970716;28;20045;-70
2023/12/24 13:53:16;;;;;;;18.30;9.90;;;;;;;;;;4970401;28;20088;-72
2023/12/24 13:55:41;;;;;;;14.90;10.60;;;;;;;;;;4961112;28;20047;-68
2023/12/24 13:58:08;;;;;;;16.63;10.27;;;;;;;;;;4955670;28;20054;-69
2023/12/24 14:00:33;;;;;;;23.52;13.88;;;;;;;;;;4961014;28;20069;-69
2023/12/24 14:02:58;;;;;;;24.55;18.35;;;;;;;;;;4956723;28;20069;-71
2023/12/24 14:05:26;;;;;;;22.95;15.02;;;;;;;;;;4957088;28;20037;-69
2023/12/24 14:07:51;;;;;;;25.55;17.02;;;;;;;;;;4951985;28;20109;-71
2023/12/24 14:10:17;;;;;;;36.10;25.08;;;;;;;;;;4965934;28;20050;-70
2023/12/24 14:12:42;;;;;;;24.50;18.70;;;;;;;;;;4963254;28;20125;-71
2023/12/24 14:15:08;;;;;;;49.88;37.42;;;;;;;;;;4962920;28;20431;-71